sensor_id;sensor_type;location;lat;lon;timestamp;pressure;altitude;pressure_sealevel;temperature;humidity
27805;BME280;15183;51.350;11.102;2022-08-05T10:55:14;99829.75;;;36.06;45.64
27805;BME280;15183;51.350;11.102;2022-08-05T10:57:44;99822.16;;;36.28;44.84
27805;BME280;15183;51.350;11.102;2022-08-05T11:00:20;99829.50;;;36.46;43.88
27805;BME280;15183;51.350;11.102;2022-08-05T11:05:35;99830.22;;;36.64;42.12
27805;BME280;15183;51.350;11.102;2022-08-05T11:08:06;99824.75;;;36.57;41.14
27805;BME280;15183;51.350;11.102;2022-08-05T11:10:34;99820.44;;;36.53;40.41
27805;BME280;15183;51.350;11.102;2022-08-05T11:13:06;99841.72;;;36.56;40.14
27805;BME280;15183;51.350;11.102;2022-08-05T11:15:36;99827.56;;;36.43;40.08
27805;BME280;15183;51.350;11.102;2022-08-05T11:18:28;99830.00;;;36.33;40.78
27805;BME280;15183;51.350;11.102;2022-08-05T11:20:55;99823.34;;;36.27;40.44
27805;BME280;15183;51.350;11.102;2022-08-05T11:28:44;99816.75;;;35.99;39.51
27805;BME280;15183;51.350;11.102;2022-08-05T11:34:00;99816.75;;;35.96;40.05
27805;BME280;15183;51.350;11.102;2022-08-05T11:36:49;99819.16;;;35.90;40.11
27805;BME280;15183;51.350;11.102;2022-08-05T11:39:54;99812.41;;;35.95;40.14
27805;BME280;15183;51.350;11.102;2022-08-05T11:42:23;99810.81;;;36.04;40.05
27805;BME280;15183;51.350;11.102;2022-08-05T11:44:51;99821.38;;;36.20;39.47
27805;BME280;15183;51.350;11.102;2022-08-05T11:47:23;99815.88;;;36.20;39.19
27805;BME280;15183;51.350;11.102;2022-08-05T11:49:57;99818.53;;;36.35;39.47
27805;BME280;15183;51.350;11.102;2022-08-05T11:52:27;99830.28;;;36.50;38.73
27805;BME280;15183;51.350;11.102;2022-08-05T11:54:55;99814.88;;;36.60;38.73
27805;BME280;15183;51.350;11.102;2022-08-05T11:57:29;99810.97;;;36.57;38.73
27805;BME280;15183;51.350;11.102;2022-08-05T11:59:57;99812.47;;;36.66;38.99
27805;BME280;15183;51.350;11.102;2022-08-05T12:02:28;99828.47;;;36.85;38.16
27805;BME280;15183;51.350;11.102;2022-08-05T12:04:57;99831.63;;;36.87;38.04
27805;BME280;15183;51.350;11.102;2022-08-05T12:07:24;99838.97;;;37.08;37.76
27805;BME280;15183;51.350;11.102;2022-08-05T12:09:54;99839.69;;;37.16;37.06
27805;BME280;15183;51.350;11.102;2022-08-05T12:12:24;99847.16;;;37.23;37.03
27805;BME280;15183;51.350;11.102;2022-08-05T12:14:55;99841.63;;;37.23;36.89
27805;BME280;15183;51.350;11.102;2022-08-05T12:17:23;99833.63;;;37.32;36.64
27805;BME280;15183;51.350;11.102;2022-08-05T12:19:52;99845.66;;;37.57;37.33
27805;BME280;15183;51.350;11.102;2022-08-05T12:22:25;99853.81;;;37.71;36.45
27805;BME280;15183;51.350;11.102;2022-08-05T12:24:52;99850.56;;;37.76;36.34
27805;BME280;15183;51.350;11.102;2022-08-05T12:27:21;99856.38;;;37.86;35.84
27805;BME280;15183;51.350;11.102;2022-08-05T12:30:10;99850.84;;;37.86;36.28
27805;BME280;15183;51.350;11.102;2022-08-05T12:32:47;99850.75;;;37.93;36.38
27805;BME280;15183;51.350;11.102;2022-08-05T12:35:20;99848.38;;;37.95;35.38
27805;BME280;15183;51.350;11.102;2022-08-05T12:37:46;99849.31;;;37.81;36.06
27805;BME280;15183;51.350;11.102;2022-08-05T12:40:15;99850.72;;;37.62;35.58
27805;BME280;15183;51.350;11.102;2022-08-05T12:42:42;99855.88;;;37.60;35.69
27805;BME280;15183;51.350;11.102;2022-08-05T12:45:09;99849.50;;;37.67;35.52
27805;BME280;15183;51.350;11.102;2022-08-05T12:47:37;99854.44;;;37.83;35.38
27805;BME280;15183;51.350;11.102;2022-08-05T12:50:16;99859.44;;;37.95;35.13
27805;BME280;15183;51.350;11.102;2022-08-05T12:52:55;99847.06;;;38.07;34.85
27805;BME280;15183;51.350;11.102;2022-08-05T12:55:28;99849.09;;;38.03;35.19
27805;BME280;15183;51.350;11.102;2022-08-05T12:57:57;99849.22;;;37.88;35.00
27805;BME280;15183;51.350;11.102;2022-08-05T13:00:26;99848.22;;;37.75;34.80
27805;BME280;15183;51.350;11.102;2022-08-05T13:02:53;99851.81;;;37.72;35.32
27805;BME280;15183;51.350;11.102;2022-08-05T13:05:25;99846.47;;;37.54;34.98
27805;BME280;15183;51.350;11.102;2022-08-05T13:07:56;99846.53;;;37.43;35.04
27805;BME280;15183;51.350;11.102;2022-08-05T13:10:23;99851.78;;;37.33;34.82
27805;BME280;15183;51.350;11.102;2022-08-05T13:12:50;99847.53;;;37.25;35.65
27805;BME280;15183;51.350;11.102;2022-08-05T13:15:17;99855.38;;;37.30;35.42
27805;BME280;15183;51.350;11.102;2022-08-05T13:17:53;99849.53;;;37.21;35.51
27805;BME280;15183;51.350;11.102;2022-08-05T13:20:20;99844.81;;;37.18;34.73
27805;BME280;15183;51.350;11.102;2022-08-05T13:22:49;99864.78;;;37.36;34.62
27805;BME280;15183;51.350;11.102;2022-08-05T13:25:17;99867.97;;;37.31;34.43
27805;BME280;15183;51.350;11.102;2022-08-05T13:27:51;99871.22;;;37.22;34.94
27805;BME280;15183;51.350;11.102;2022-08-05T13:30:21;99858.69;;;37.11;35.38
27805;BME280;15183;51.350;11.102;2022-08-05T13:32:49;99852.03;;;37.04;35.59
27805;BME280;15183;51.350;11.102;2022-08-05T13:35:18;99864.66;;;37.05;35.19
27805;BME280;15183;51.350;11.102;2022-08-05T13:37:46;99852.03;;;37.04;35.36
27805;BME280;15183;51.350;11.102;2022-08-05T13:40:14;99866.56;;;37.12;35.09
27805;BME280;15183;51.350;11.102;2022-08-05T13:42:40;99862.97;;;37.19;34.51
27805;BME280;15183;51.350;11.102;2022-08-05T13:45:07;99855.13;;;37.14;34.32
27805;BME280;15183;51.350;11.102;2022-08-05T13:47:34;99866.28;;;37.03;35.00
27805;BME280;15183;51.350;11.102;2022-08-05T13:50:05;99873.03;;;36.87;34.52
27805;BME280;15183;51.350;11.102;2022-08-05T13:52:32;99882.38;;;36.52;35.22
27805;BME280;15183;51.350;11.102;2022-08-05T13:54:58;99891.97;;;36.11;34.64
27805;BME280;15183;51.350;11.102;2022-08-05T13:57:25;99879.09;;;35.42;35.36
27805;BME280;15183;51.350;11.102;2022-08-05T13:59:51;99891.25;;;34.98;35.91
27805;BME280;15183;51.350;11.102;2022-08-05T14:02:18;99901.03;;;34.59;36.04
27805;BME280;15183;51.350;11.102;2022-08-05T14:04:45;99929.53;;;34.22;36.79
27805;BME280;15183;51.350;11.102;2022-08-05T14:07:32;99929.97;;;33.68;37.77
27805;BME280;15183;51.350;11.102;2022-08-05T14:09:59;99938.88;;;33.50;37.81
27805;BME280;15183;51.350;11.102;2022-08-05T14:12:26;99945.81;;;33.37;38.12
27805;BME280;15183;51.350;11.102;2022-08-05T14:14:52;99935.44;;;33.19;38.66
27805;BME280;15183;51.350;11.102;2022-08-05T14:17:19;99950.28;;;33.14;39.00
27805;BME280;15183;51.350;11.102;2022-08-05T14:19:48;99952.88;;;32.96;39.12
27805;BME280;15183;51.350;11.102;2022-08-05T14:22:15;99959.50;;;32.95;40.06
27805;BME280;15183;51.350;11.102;2022-08-05T14:24:41;99948.69;;;32.75;40.36
27805;BME280;15183;51.350;11.102;2022-08-05T14:27:08;99966.28;;;32.71;40.56
27805;BME280;15183;51.350;11.102;2022-08-05T14:29:34;99959.94;;;32.67;41.00
27805;BME280;15183;51.350;11.102;2022-08-05T14:32:01;99967.63;;;32.54;40.64
27805;BME280;15183;51.350;11.102;2022-08-05T14:34:27;99970.78;;;32.56;40.68
27805;BME280;15183;51.350;11.102;2022-08-05T14:36:53;99975.03;;;32.50;41.16
27805;BME280;15183;51.350;11.102;2022-08-05T14:39:20;99985.22;;;32.49;41.33
27805;BME280;15183;51.350;11.102;2022-08-05T14:41:46;99992.97;;;32.43;41.41
27805;BME280;15183;51.350;11.102;2022-08-05T14:44:13;99984.66;;;32.36;41.80
27805;BME280;15183;51.350;11.102;2022-08-05T14:46:39;99998.66;;;32.31;42.03
27805;BME280;15183;51.350;11.102;2022-08-05T14:49:06;99996.44;;;32.13;41.72
27805;BME280;15183;51.350;11.102;2022-08-05T14:51:36;100017.13;;;32.07;41.99
27805;BME280;15183;51.350;11.102;2022-08-05T14:54:05;100015.13;;;31.81;42.50
27805;BME280;15183;51.350;11.102;2022-08-05T14:56:33;100026.53;;;31.63;43.14
27805;BME280;15183;51.350;11.102;2022-08-05T14:58:59;100031.16;;;31.36;43.18
27805;BME280;15183;51.350;11.102;2022-08-05T15:01:27;100033.16;;;30.99;43.79
27805;BME280;15183;51.350;11.102;2022-08-05T15:03:53;100038.75;;;30.67;43.61
27805;BME280;15183;51.350;11.102;2022-08-05T15:06:19;100062.44;;;30.43;44.17
27805;BME280;15183;51.350;11.102;2022-08-05T15:08:46;100054.97;;;30.08;45.00
27805;BME280;15183;51.350;11.102;2022-08-05T15:11:13;100076.47;;;29.78;45.00
27805;BME280;15183;51.350;11.102;2022-08-05T15:13:39;100068.13;;;29.29;45.70
27805;BME280;15183;51.350;11.102;2022-08-05T15:16:06;100086.59;;;29.08;46.36
27805;BME280;15183;51.350;11.102;2022-08-05T15:18:32;100086.56;;;28.79;46.36
27805;BME280;15183;51.350;11.102;2022-08-05T15:21:00;100099.38;;;28.66;47.10
27805;BME280;15183;51.350;11.102;2022-08-05T15:23:27;100084.97;;;28.41;47.25
27805;BME280;15183;51.350;11.102;2022-08-05T15:25:53;100095.28;;;28.23;47.76
27805;BME280;15183;51.350;11.102;2022-08-05T15:28:21;100100.16;;;28.17;47.79
27805;BME280;15183;51.350;11.102;2022-08-05T15:30:48;100099.34;;;28.04;47.76
27805;BME280;15183;51.350;11.102;2022-08-05T15:33:14;100123.03;;;28.03;48.10
27805;BME280;15183;51.350;11.102;2022-08-05T15:35:41;100120.31;;;27.91;47.98
27805;BME280;15183;51.350;11.102;2022-08-05T15:38:07;100123.44;;;27.81;47.72
27805;BME280;15183;51.350;11.102;2022-08-05T15:40:33;100117.63;;;27.70;47.83
27805;BME280;15183;51.350;11.102;2022-08-05T15:43:00;100136.53;;;27.66;47.05
27805;BME280;15183;51.350;11.102;2022-08-05T15:45:26;100136.75;;;27.40;47.68
27805;BME280;15183;51.350;11.102;2022-08-05T15:47:54;100142.41;;;27.35;47.44
27805;BME280;15183;51.350;11.102;2022-08-05T15:50:20;100125.97;;;27.22;47.21
27805;BME280;15183;51.350;11.102;2022-08-05T15:52:47;100119.28;;;27.20;47.09
27805;BME280;15183;51.350;11.102;2022-08-05T15:55:13;100108.22;;;27.04;47.59
27805;BME280;15183;51.350;11.102;2022-08-05T15:57:40;100148.00;;;27.08;47.40
27805;BME280;15183;51.350;11.102;2022-08-05T16:00:09;100145.19;;;26.96;47.74
27805;BME280;15183;51.350;11.102;2022-08-05T16:02:36;100139.34;;;26.85;47.80
27805;BME280;15183;51.350;11.102;2022-08-05T16:05:04;100149.25;;;26.81;47.35
27805;BME280;15183;51.350;11.102;2022-08-05T16:07:30;100159.19;;;26.85;47.45
27805;BME280;15183;51.350;11.102;2022-08-05T16:09:57;100163.31;;;26.92;47.22
27805;BME280;15183;51.350;11.102;2022-08-05T16:12:23;100151.81;;;26.86;47.07
27805;BME280;15183;51.350;11.102;2022-08-05T16:14:50;100174.13;;;27.00;47.17
27805;BME280;15183;51.350;11.102;2022-08-05T16:17:16;100169.81;;;26.99;47.21
27805;BME280;15183;51.350;11.102;2022-08-05T16:19:42;100184.66;;;27.02;47.25
27805;BME280;15183;51.350;11.102;2022-08-05T16:22:09;100179.59;;;27.00;46.75
27805;BME280;15183;51.350;11.102;2022-08-05T16:24:35;100184.31;;;27.12;46.89
27805;BME280;15183;51.350;11.102;2022-08-05T16:27:03;100194.13;;;27.05;46.43
27805;BME280;15183;51.350;11.102;2022-08-05T16:29:30;100197.97;;;27.04;46.10
27805;BME280;15183;51.350;11.102;2022-08-05T16:31:57;100205.84;;;26.96;46.15
27805;BME280;15183;51.350;11.102;2022-08-05T16:34:25;100202.34;;;26.87;46.75
27805;BME280;15183;51.350;11.102;2022-08-05T16:36:52;100214.38;;;26.77;46.54
27805;BME280;15183;51.350;11.102;2022-08-05T16:39:19;100209.63;;;26.65;46.74
27805;BME280;15183;51.350;11.102;2022-08-05T16:41:46;100217.78;;;26.65;46.54
27805;BME280;15183;51.350;11.102;2022-08-05T16:44:15;100218.44;;;26.62;46.32
27805;BME280;15183;51.350;11.102;2022-08-05T16:46:42;100214.41;;;26.59;46.34
27805;BME280;15183;51.350;11.102;2022-08-05T16:49:09;100232.84;;;26.54;46.91
27805;BME280;15183;51.350;11.102;2022-08-05T16:51:39;100237.47;;;26.53;46.89
27805;BME280;15183;51.350;11.102;2022-08-05T16:54:06;100221.16;;;26.53;46.29
27805;BME280;15183;51.350;11.102;2022-08-05T16:56:35;100239.31;;;26.79;46.20
27805;BME280;15183;51.350;11.102;2022-08-05T16:59:04;100240.16;;;27.10;45.73
27805;BME280;15183;51.350;11.102;2022-08-05T17:01:32;100218.16;;;27.54;45.22
27805;BME280;15183;51.350;11.102;2022-08-05T17:03:58;100229.59;;;28.02;44.97
27805;BME280;15183;51.350;11.102;2022-08-05T17:06:24;100237.91;;;28.27;44.66
27805;BME280;15183;51.350;11.102;2022-08-05T17:08:51;100236.16;;;28.43;44.27
27805;BME280;15183;51.350;11.102;2022-08-05T17:11:18;100243.00;;;28.62;44.21
27805;BME280;15183;51.350;11.102;2022-08-05T17:13:44;100245.56;;;28.46;43.48
27805;BME280;15183;51.350;11.102;2022-08-05T17:16:11;100250.06;;;28.29;43.42
27805;BME280;15183;51.350;11.102;2022-08-05T17:18:38;100264.03;;;28.28;42.93
27805;BME280;15183;51.350;11.102;2022-08-05T17:21:04;100246.53;;;28.29;42.78
27805;BME280;15183;51.350;11.102;2022-08-05T17:23:31;100265.16;;;28.73;42.27
27805;BME280;15183;51.350;11.102;2022-08-05T17:25:57;100258.22;;;28.63;41.71
27805;BME280;15183;51.350;11.102;2022-08-05T17:28:24;100262.94;;;28.41;42.40
27805;BME280;15183;51.350;11.102;2022-08-05T17:30:50;100252.81;;;28.08;41.68
27805;BME280;15183;51.350;11.102;2022-08-05T17:33:16;100254.03;;;27.77;41.54
27805;BME280;15183;51.350;11.102;2022-08-05T17:35:43;100276.56;;;27.56;40.06
27805;BME280;15183;51.350;11.102;2022-08-05T17:38:09;100257.56;;;27.18;40.74
27805;BME280;15183;51.350;11.102;2022-08-05T17:40:36;100259.50;;;27.08;41.08
27805;BME280;15183;51.350;11.102;2022-08-05T17:43:02;100252.38;;;26.95;41.15
27805;BME280;15183;51.350;11.102;2022-08-05T17:45:29;100251.44;;;26.91;40.63
27805;BME280;15183;51.350;11.102;2022-08-05T17:47:56;100269.53;;;26.86;40.46
27805;BME280;15183;51.350;11.102;2022-08-05T17:50:25;100251.72;;;26.50;40.69
27805;BME280;15183;51.350;11.102;2022-08-05T17:52:52;100276.00;;;26.47;40.56
27805;BME280;15183;51.350;11.102;2022-08-05T17:55:19;100288.97;;;26.41;40.91
27805;BME280;15183;51.350;11.102;2022-08-05T17:57:45;100311.19;;;26.43;40.59
27805;BME280;15183;51.350;11.102;2022-08-05T18:00:12;100308.31;;;26.30;40.36
27805;BME280;15183;51.350;11.102;2022-08-05T18:02:38;100309.09;;;26.22;40.34
27805;BME280;15183;51.350;11.102;2022-08-05T18:05:05;100303.81;;;26.08;40.70
27805;BME280;15183;51.350;11.102;2022-08-05T18:07:32;100308.91;;;26.01;40.21
27805;BME280;15183;51.350;11.102;2022-08-05T18:09:59;100329.69;;;25.97;40.57
27805;BME280;15183;51.350;11.102;2022-08-05T18:12:25;100321.03;;;25.77;40.92
27805;BME280;15183;51.350;11.102;2022-08-05T18:14:52;100328.69;;;25.75;40.97
27805;BME280;15183;51.350;11.102;2022-08-05T18:17:18;100319.41;;;25.67;41.06
27805;BME280;15183;51.350;11.102;2022-08-05T18:19:44;100309.16;;;25.55;41.40
27805;BME280;15183;51.350;11.102;2022-08-05T18:22:12;100318.09;;;25.56;40.66
27805;BME280;15183;51.350;11.102;2022-08-05T18:24:39;100325.94;;;25.57;40.62
27805;BME280;15183;51.350;11.102;2022-08-05T18:27:07;100324.63;;;25.46;40.26
27805;BME280;15183;51.350;11.102;2022-08-05T18:29:33;100330.63;;;25.34;39.97
27805;BME280;15183;51.350;11.102;2022-08-05T18:31:59;100336.16;;;25.20;40.02
27805;BME280;15183;51.350;11.102;2022-08-05T18:34:26;100342.97;;;25.09;40.66
27805;BME280;15183;51.350;11.102;2022-08-05T18:36:52;100354.56;;;25.00;39.78
27805;BME280;15183;51.350;11.102;2022-08-05T18:39:18;100359.94;;;24.92;40.57
27805;BME280;15183;51.350;11.102;2022-08-05T18:41:45;100374.28;;;24.92;40.36
27805;BME280;15183;51.350;11.102;2022-08-05T18:44:14;100373.00;;;24.90;41.02
27805;BME280;15183;51.350;11.102;2022-08-05T18:46:40;100383.16;;;24.84;40.66
27805;BME280;15183;51.350;11.102;2022-08-05T18:49:07;100372.31;;;24.84;40.92
27805;BME280;15183;51.350;11.102;2022-08-05T18:51:51;100378.78;;;24.74;41.89
27805;BME280;15183;51.350;11.102;2022-08-05T18:54:36;100389.09;;;24.72;41.64
27805;BME280;15183;51.350;11.102;2022-08-05T18:57:03;100388.91;;;24.68;42.04
27805;BME280;15183;51.350;11.102;2022-08-05T18:59:29;100381.63;;;24.55;41.41
27805;BME280;15183;51.350;11.102;2022-08-05T19:01:56;100393.81;;;24.43;42.31
27805;BME280;15183;51.350;11.102;2022-08-05T19:04:22;100375.91;;;24.20;41.95
27805;BME280;15183;51.350;11.102;2022-08-05T19:06:49;100383.66;;;24.12;42.37
27805;BME280;15183;51.350;11.102;2022-08-05T19:09:15;100400.28;;;24.20;43.33
27805;BME280;15183;51.350;11.102;2022-08-05T19:11:41;100411.59;;;24.22;42.97
27805;BME280;15183;51.350;11.102;2022-08-05T19:14:08;100409.22;;;24.20;43.54
27805;BME280;15183;51.350;11.102;2022-08-05T19:16:34;100416.81;;;24.32;43.94
27805;BME280;15183;51.350;11.102;2022-08-05T19:19:06;100415.00;;;24.41;44.28
27805;BME280;15183;51.350;11.102;2022-08-05T19:21:33;100411.13;;;24.56;43.61
27805;BME280;15183;51.350;11.102;2022-08-05T19:23:59;100418.13;;;24.71;44.14
27805;BME280;15183;51.350;11.102;2022-08-05T19:26:26;100417.59;;;24.83;44.29
27805;BME280;15183;51.350;11.102;2022-08-05T19:28:52;100430.72;;;24.90;44.12
27805;BME280;15183;51.350;11.102;2022-08-05T19:31:19;100440.72;;;25.04;44.29
27805;BME280;15183;51.350;11.102;2022-08-05T19:33:45;100456.72;;;25.14;44.26
27805;BME280;15183;51.350;11.102;2022-08-05T19:36:12;100452.75;;;25.20;44.42
27805;BME280;15183;51.350;11.102;2022-08-05T19:38:38;100450.88;;;25.21;43.97
27805;BME280;15183;51.350;11.102;2022-08-05T19:41:06;100461.63;;;25.35;44.04
27805;BME280;15183;51.350;11.102;2022-08-05T19:43:33;100469.66;;;25.40;44.36
27805;BME280;15183;51.350;11.102;2022-08-05T19:45:59;100476.25;;;25.48;44.43
27805;BME280;15183;51.350;11.102;2022-08-05T19:48:26;100462.28;;;25.40;43.79
27805;BME280;15183;51.350;11.102;2022-08-05T19:50:52;100464.78;;;25.51;43.68
27805;BME280;15183;51.350;11.102;2022-08-05T19:53:19;100480.19;;;25.64;43.92
27805;BME280;15183;51.350;11.102;2022-08-05T19:55:45;100473.31;;;25.67;43.59
27805;BME280;15183;51.350;11.102;2022-08-05T19:58:12;100483.38;;;25.66;44.04
27805;BME280;15183;51.350;11.102;2022-08-05T20:00:40;100469.75;;;25.57;44.11
27805;BME280;15183;51.350;11.102;2022-08-05T20:03:06;100484.78;;;25.64;43.74
27805;BME280;15183;51.350;11.102;2022-08-05T20:05:33;100474.88;;;25.59;43.84
27805;BME280;15183;51.350;11.102;2022-08-05T20:07:59;100490.34;;;25.58;43.93
27805;BME280;15183;51.350;11.102;2022-08-05T20:10:26;100497.97;;;25.48;43.42
27805;BME280;15183;51.350;11.102;2022-08-05T20:12:52;100498.47;;;25.36;43.57
27805;BME280;15183;51.350;11.102;2022-08-05T20:15:20;100501.81;;;25.33;43.77
27805;BME280;15183;51.350;11.102;2022-08-05T20:17:47;100515.09;;;25.34;43.86
27805;BME280;15183;51.350;11.102;2022-08-05T20:20:14;100504.00;;;25.22;44.11
27805;BME280;15183;51.350;11.102;2022-08-05T20:22:41;100506.31;;;25.14;44.01
27805;BME280;15183;51.350;11.102;2022-08-05T20:25:08;100530.81;;;25.23;44.15
27805;BME280;15183;51.350;11.102;2022-08-05T20:27:34;100534.00;;;25.25;44.36
27805;BME280;15183;51.350;11.102;2022-08-05T20:30:01;100525.75;;;25.31;44.79
27805;BME280;15183;51.350;11.102;2022-08-05T20:32:27;100530.25;;;25.35;44.75
27805;BME280;15183;51.350;11.102;2022-08-05T20:34:53;100514.88;;;25.31;44.10
27805;BME280;15183;51.350;11.102;2022-08-05T20:37:20;100519.22;;;25.32;44.25
27805;BME280;15183;51.350;11.102;2022-08-05T20:39:47;100525.88;;;25.25;44.23
27805;BME280;15183;51.350;11.102;2022-08-05T20:42:13;100530.44;;;25.16;44.92
27805;BME280;15183;51.350;11.102;2022-08-05T20:44:39;100537.66;;;25.21;44.68
27805;BME280;15183;51.350;11.102;2022-08-05T20:47:06;100547.88;;;25.24;44.43
27805;BME280;15183;51.350;11.102;2022-08-05T20:49:32;100542.97;;;25.26;45.01
27805;BME280;15183;51.350;11.102;2022-08-05T20:51:59;100555.81;;;25.20;44.51
27805;BME280;15183;51.350;11.102;2022-08-05T20:54:26;100543.91;;;25.07;44.76
27805;BME280;15183;51.350;11.102;2022-08-05T20:56:56;100552.88;;;25.08;44.66
27805;BME280;15183;51.350;11.102;2022-08-05T20:59:23;100549.25;;;24.98;45.08
27805;BME280;15183;51.350;11.102;2022-08-05T21:01:49;100555.78;;;24.97;45.25
27805;BME280;15183;51.350;11.102;2022-08-05T21:04:17;100554.78;;;24.93;44.95
27805;BME280;15183;51.350;11.102;2022-08-05T21:06:44;100554.25;;;24.82;45.44
27805;BME280;15183;51.350;11.102;2022-08-05T21:09:12;100553.22;;;24.64;45.38
27805;BME280;15183;51.350;11.102;2022-08-05T21:11:39;100577.69;;;24.73;45.27
27805;BME280;15183;51.350;11.102;2022-08-05T21:14:05;100571.00;;;24.70;46.03
27805;BME280;15183;51.350;11.102;2022-08-05T21:16:32;100573.81;;;24.65;46.00
27805;BME280;15183;51.350;11.102;2022-08-05T21:18:59;100576.91;;;24.45;45.71
27805;BME280;15183;51.350;11.102;2022-08-05T21:21:27;100588.47;;;24.36;45.87
27805;BME280;15183;51.350;11.102;2022-08-05T21:23:53;100587.56;;;24.27;46.07
27805;BME280;15183;51.350;11.102;2022-08-05T21:26:20;100584.25;;;24.30;46.34
27805;BME280;15183;51.350;11.102;2022-08-05T21:28:46;100579.81;;;24.34;46.13
27805;BME280;15183;51.350;11.102;2022-08-05T21:31:12;100574.31;;;24.25;46.20
27805;BME280;15183;51.350;11.102;2022-08-05T21:33:39;100565.97;;;24.08;46.30
27805;BME280;15183;51.350;11.102;2022-08-05T21:36:05;100574.47;;;24.01;46.53
27805;BME280;15183;51.350;11.102;2022-08-05T21:38:32;100590.06;;;23.90;46.50
27805;BME280;15183;51.350;11.102;2022-08-05T21:40:58;100597.44;;;23.84;47.23
27805;BME280;15183;51.350;11.102;2022-08-05T21:43:25;100578.25;;;23.67;47.11
27805;BME280;15183;51.350;11.102;2022-08-05T21:45:52;100586.81;;;23.74;46.94
27805;BME280;15183;51.350;11.102;2022-08-05T21:48:18;100588.63;;;23.79;47.35
27805;BME280;15183;51.350;11.102;2022-08-05T21:50:45;100598.84;;;23.82;46.91
27805;BME280;15183;51.350;11.102;2022-08-05T21:53:11;100598.84;;;23.82;46.79
27805;BME280;15183;51.350;11.102;2022-08-05T21:55:38;100606.66;;;23.83;47.35
27805;BME280;15183;51.350;11.102;2022-08-05T21:58:05;100609.19;;;23.80;47.00
27805;BME280;15183;51.350;11.102;2022-08-05T22:00:31;100626.72;;;23.82;47.08
27805;BME280;15183;51.350;11.102;2022-08-05T22:02:58;100624.31;;;23.81;46.98
27805;BME280;15183;51.350;11.102;2022-08-05T22:05:25;100609.78;;;23.77;47.00
27805;BME280;15183;51.350;11.102;2022-08-05T22:07:51;100615.28;;;23.85;47.37
27805;BME280;15183;51.350;11.102;2022-08-05T22:10:18;100624.97;;;23.92;47.35
27805;BME280;15183;51.350;11.102;2022-08-05T22:12:45;100640.50;;;24.00;47.37
27805;BME280;15183;51.350;11.102;2022-08-05T22:15:14;100640.75;;;24.04;46.79
27805;BME280;15183;51.350;11.102;2022-08-05T22:17:43;100640.00;;;23.98;47.27
27805;BME280;15183;51.350;11.102;2022-08-05T22:20:12;100646.22;;;23.98;46.74
27805;BME280;15183;51.350;11.102;2022-08-05T22:22:39;100645.78;;;23.91;47.02
27805;BME280;15183;51.350;11.102;2022-08-05T22:25:24;100653.00;;;23.82;47.60
27805;BME280;15183;51.350;11.102;2022-08-05T22:28:10;100656.28;;;23.79;47.59
27805;BME280;15183;51.350;11.102;2022-08-05T22:30:39;100649.13;;;23.69;47.37
27805;BME280;15183;51.350;11.102;2022-08-05T22:33:07;100655.13;;;23.66;47.83
27805;BME280;15183;51.350;11.102;2022-08-05T22:35:35;100654.38;;;23.60;47.64
27805;BME280;15183;51.350;11.102;2022-08-05T22:38:03;100648.03;;;23.51;47.54
27805;BME280;15183;51.350;11.102;2022-08-05T22:40:30;100659.38;;;23.53;47.26
27805;BME280;15183;51.350;11.102;2022-08-05T22:42:57;100662.00;;;23.58;48.14
27805;BME280;15183;51.350;11.102;2022-08-05T22:45:23;100661.88;;;23.49;47.71
27805;BME280;15183;51.350;11.102;2022-08-05T22:47:53;100649.94;;;23.31;48.10
27805;BME280;15183;51.350;11.102;2022-08-05T22:50:20;100671.19;;;23.38;47.79
27805;BME280;15183;51.350;11.102;2022-08-05T22:52:48;100657.75;;;23.33;47.60
27805;BME280;15183;51.350;11.102;2022-08-05T22:55:15;100659.16;;;23.30;47.47
27805;BME280;15183;51.350;11.102;2022-08-05T22:57:42;100667.41;;;23.39;47.48
27805;BME280;15183;51.350;11.102;2022-08-05T23:00:10;100665.00;;;23.37;47.49
27805;BME280;15183;51.350;11.102;2022-08-05T23:02:37;100647.59;;;23.24;47.32
27805;BME280;15183;51.350;11.102;2022-08-05T23:05:04;100643.53;;;23.22;47.76
27805;BME280;15183;51.350;11.102;2022-08-05T23:07:32;100671.19;;;23.38;47.44
27805;BME280;15183;51.350;11.102;2022-08-05T23:09:58;100659.47;;;23.23;47.30
27805;BME280;15183;51.350;11.102;2022-08-05T23:12:24;100681.56;;;23.31;47.61
27805;BME280;15183;51.350;11.102;2022-08-05T23:14:53;100681.56;;;23.31;47.68
27805;BME280;15183;51.350;11.102;2022-08-05T23:17:19;100686.72;;;23.32;47.58
27805;BME280;15183;51.350;11.102;2022-08-05T23:19:53;100683.78;;;23.29;47.00
27805;BME280;15183;51.350;11.102;2022-08-05T23:22:21;100700.78;;;23.29;47.29
27805;BME280;15183;51.350;11.102;2022-08-05T23:24:48;100676.34;;;23.15;46.99
27805;BME280;15183;51.350;11.102;2022-08-05T23:27:15;100703.78;;;23.27;47.44
27805;BME280;15183;51.350;11.102;2022-08-05T23:29:42;100704.63;;;23.23;47.05
27805;BME280;15183;51.350;11.102;2022-08-05T23:32:09;100707.31;;;23.23;46.82
27805;BME280;15183;51.350;11.102;2022-08-05T23:34:36;100698.75;;;23.16;47.19
27805;BME280;15183;51.350;11.102;2022-08-05T23:37:03;100702.28;;;23.16;47.25
27805;BME280;15183;51.350;11.102;2022-08-05T23:39:30;100701.72;;;23.19;46.55
27805;BME280;15183;51.350;11.102;2022-08-05T23:41:57;100698.50;;;23.17;46.46
27805;BME280;15183;51.350;11.102;2022-08-05T23:44:23;100706.88;;;23.16;46.05
27805;BME280;15183;51.350;11.102;2022-08-05T23:46:50;100708.81;;;23.10;46.34
27805;BME280;15183;51.350;11.102;2022-08-05T23:49:16;100704.38;;;23.00;46.10
27805;BME280;15183;51.350;11.102;2022-08-05T23:51:43;100721.38;;;23.01;46.48